Time;durP1;ratioP1;P1;durP2;ratioP2;P2;SDS_P1;SDS_P2;PMS_P1;PMS_P2;Temp;Humidity;BMP_temperature;BMP_pressure;BME280_temperature;BME280_humidity;BME280_pressure;Samples;Min_cycle;Max_cycle;Signal;HPM_P1;HPM_P2
2021/06/20 00:00:15;;;;;;;14.80;10.83;;;;;;;;;;766224;182;918392;-71
2021/06/20 00:02:40;;;;;;;19.83;10.25;;;;;;;;;;759666;182;918802;-72
2021/06/20 00:05:07;;;;;;;24.40;10.10;;;;;;;;;;759070;183;919617;-72
2021/06/20 00:07:33;;;;;;;15.57;11.03;;;;;;;;;;760988;182;918966;-70
2021/06/20 00:10:01;;;;;;;16.60;11.23;;;;;;;;;;767506;182;916743;-70
2021/06/20 00:12:25;;;;;;;19.13;10.23;;;;;;;;;;765428;182;918001;-70
2021/06/20 00:14:51;;;;;;;15.93;11.10;;;;;;;;;;757401;183;921070;-70
2021/06/20 00:17:17;;;;;;;23.70;13.47;;;;;;;;;;767774;182;918141;-70
2021/06/20 00:19:42;;;;;;;14.00;11.27;;;;;;;;;;757941;183;918684;-71
2021/06/20 00:22:08;;;;;;;22.90;10.90;;;;;;;;;;762395;183;919328;-70
2021/06/20 00:24:34;;;;;;;21.47;11.23;;;;;;;;;;763532;183;918486;-70
2021/06/20 00:27:00;;;;;;;15.23;11.43;;;;;;;;;;758966;182;919464;-70
2021/06/20 00:29:26;;;;;;;18.00;12.00;;;;;;;;;;761031;182;919813;-71
2021/06/20 00:31:53;;;;;;;18.98;12.75;;;;;;;;;;761158;182;919227;-70
2021/06/20 00:34:17;;;;;;;15.63;12.37;;;;;;;;;;762258;183;919127;-70
2021/06/20 00:36:43;;;;;;;17.60;12.73;;;;;;;;;;758032;182;919263;-70
2021/06/20 00:39:09;;;;;;;21.83;12.93;;;;;;;;;;762220;182;918565;-70
2021/06/20 00:41:36;;;;;;;18.90;13.13;;;;;;;;;;766312;183;918483;-70
2021/06/20 00:44:01;;;;;;;16.73;12.00;;;;;;;;;;755968;183;919312;-70
2021/06/20 00:46:27;;;;;;;16.92;11.27;;;;;;;;;;751190;185;1013361;-69
2021/06/20 00:48:52;;;;;;;18.97;11.90;;;;;;;;;;765487;183;919032;-69
2021/06/20 00:51:18;;;;;;;17.50;11.67;;;;;;;;;;758354;182;919281;-69
2021/06/20 00:53:44;;;;;;;17.70;13.80;;;;;;;;;;757162;182;919052;-69
2021/06/20 00:56:12;;;;;;;18.73;12.50;;;;;;;;;;765601;182;918892;-69
2021/06/20 00:58:36;;;;;;;22.33;12.50;;;;;;;;;;761175;182;919485;-69
2021/06/20 01:01:02;;;;;;;19.30;12.63;;;;;;;;;;759684;182;918971;-69
2021/06/20 01:03:28;;;;;;;25.97;11.67;;;;;;;;;;760033;182;919159;-71
2021/06/20 01:05:53;;;;;;;17.53;11.70;;;;;;;;;;766088;183;919248;-69
2021/06/20 01:08:19;;;;;;;16.20;13.10;;;;;;;;;;759285;182;921317;-69
2021/06/20 01:10:45;;;;;;;20.03;12.47;;;;;;;;;;754502;184;918593;-69
2021/06/20 01:13:11;;;;;;;20.30;13.07;;;;;;;;;;766452;183;919648;-69
2021/06/20 01:15:37;;;;;;;19.70;14.80;;;;;;;;;;754871;183;919604;-69
2021/06/20 01:18:03;;;;;;;18.20;13.73;;;;;;;;;;754784;184;918904;-68
2021/06/20 01:20:28;;;;;;;19.43;13.67;;;;;;;;;;766359;182;918407;-69
2021/06/20 01:22:54;;;;;;;17.57;13.90;;;;;;;;;;761453;182;919176;-69
2021/06/20 01:25:20;;;;;;;22.03;13.53;;;;;;;;;;761726;182;919126;-69
2021/06/20 01:27:49;;;;;;;18.53;14.67;;;;;;;;;;767432;182;918244;-69
2021/06/20 01:30:13;;;;;;;17.80;14.57;;;;;;;;;;758156;183;919222;-69
2021/06/20 01:32:39;;;;;;;21.00;14.80;;;;;;;;;;753396;183;919313;-68
2021/06/20 01:35:06;;;;;;;18.73;15.80;;;;;;;;;;745240;186;919436;-68
2021/06/20 01:37:31;;;;;;;20.37;15.67;;;;;;;;;;751456;187;919955;-68
2021/06/20 01:39:57;;;;;;;16.57;14.13;;;;;;;;;;745963;187;919261;-68
2021/06/20 01:42:23;;;;;;;17.90;14.40;;;;;;;;;;747085;185;925918;-69
2021/06/20 01:44:49;;;;;;;21.53;15.73;;;;;;;;;;761365;183;918666;-69
2021/06/20 01:47:15;;;;;;;19.60;16.03;;;;;;;;;;759266;183;918257;-69
2021/06/20 01:49:41;;;;;;;16.03;13.00;;;;;;;;;;758853;183;920769;-68
2021/06/20 01:52:07;;;;;;;15.07;12.43;;;;;;;;;;748531;186;1021920;-68
2021/06/20 01:54:33;;;;;;;14.20;11.27;;;;;;;;;;731821;191;919535;-68
2021/06/20 01:56:59;;;;;;;14.47;12.97;;;;;;;;;;733077;190;918206;-68
2021/06/20 01:59:25;;;;;;;17.60;13.87;;;;;;;;;;751895;184;919352;-68
2021/06/20 02:01:51;;;;;;;31.23;15.67;;;;;;;;;;757554;184;919128;-68
2021/06/20 02:04:17;;;;;;;17.67;11.77;;;;;;;;;;755312;183;919399;-68
2021/06/20 02:06:42;;;;;;;16.97;12.10;;;;;;;;;;759134;183;919152;-68
2021/06/20 02:09:08;;;;;;;29.30;15.00;;;;;;;;;;765896;182;919254;-68
2021/06/20 02:11:34;;;;;;;18.83;12.65;;;;;;;;;;754596;184;919100;-68
2021/06/20 02:14:00;;;;;;;20.87;14.83;;;;;;;;;;762296;183;919369;-68
2021/06/20 02:16:26;;;;;;;17.13;13.13;;;;;;;;;;763951;183;918887;-68
2021/06/20 02:18:52;;;;;;;24.47;14.00;;;;;;;;;;759431;182;919123;-68
2021/06/20 02:21:18;;;;;;;21.98;13.98;;;;;;;;;;759455;182;1020879;-68
2021/06/20 02:23:44;;;;;;;22.83;13.10;;;;;;;;;;760397;182;919567;-67
2021/06/20 02:26:10;;;;;;;26.33;13.90;;;;;;;;;;762812;179;924829;-67
2021/06/20 02:28:35;;;;;;;19.67;13.50;;;;;;;;;;758017;183;919911;-68
2021/06/20 02:31:01;;;;;;;27.30;11.93;;;;;;;;;;761776;180;919121;-67
2021/06/20 02:33:27;;;;;;;17.47;14.33;;;;;;;;;;770148;182;918831;-67
2021/06/20 02:35:53;;;;;;;20.30;12.60;;;;;;;;;;759481;183;919131;-68
2021/06/20 02:38:19;;;;;;;23.13;13.23;;;;;;;;;;753460;184;919057;-68
2021/06/20 02:40:45;;;;;;;22.73;13.03;;;;;;;;;;749699;186;919353;-67
2021/06/20 02:43:10;;;;;;;20.77;13.87;;;;;;;;;;735481;190;919303;-67
2021/06/20 02:45:36;;;;;;;25.93;14.97;;;;;;;;;;747270;186;919329;-68
2021/06/20 02:48:02;;;;;;;26.73;13.30;;;;;;;;;;765898;182;918777;-67
2021/06/20 02:50:29;;;;;;;26.77;14.77;;;;;;;;;;758575;182;919570;-67
2021/06/20 02:52:54;;;;;;;20.23;14.23;;;;;;;;;;758367;182;919502;-68
2021/06/20 02:55:20;;;;;;;24.80;14.80;;;;;;;;;;758283;182;918669;-67
2021/06/20 02:57:46;;;;;;;25.17;14.43;;;;;;;;;;766293;182;921938;-67
2021/06/20 03:00:12;;;;;;;22.60;14.00;;;;;;;;;;762180;182;918931;-67
2021/06/20 03:02:38;;;;;;;21.93;13.17;;;;;;;;;;757784;183;919378;-69
2021/06/20 03:05:04;;;;;;;28.27;13.83;;;;;;;;;;745364;187;918415;-67
2021/06/20 03:07:30;;;;;;;21.50;13.00;;;;;;;;;;761155;183;918670;-67
2021/06/20 03:09:56;;;;;;;25.80;15.60;;;;;;;;;;759709;182;919427;-67
2021/06/20 03:12:21;;;;;;;30.73;13.80;;;;;;;;;;765258;182;918867;-68
2021/06/20 03:14:47;;;;;;;20.60;13.40;;;;;;;;;;759403;182;919028;-67
2021/06/20 03:17:14;;;;;;;18.17;13.60;;;;;;;;;;759368;182;919176;-68
2021/06/20 03:19:39;;;;;;;19.83;13.13;;;;;;;;;;758495;182;919883;-67
2021/06/20 03:22:05;;;;;;;17.53;13.53;;;;;;;;;;766733;182;919697;-67
2021/06/20 03:24:31;;;;;;;27.63;13.60;;;;;;;;;;764189;182;918517;-67
2021/06/20 03:26:57;;;;;;;24.60;13.87;;;;;;;;;;758189;183;918442;-67
2021/06/20 03:29:22;;;;;;;21.50;15.67;;;;;;;;;;765354;182;914361;-67
2021/06/20 03:31:48;;;;;;;18.90;14.80;;;;;;;;;;760553;182;915034;-67
2021/06/20 03:34:14;;;;;;;24.10;16.50;;;;;;;;;;758837;182;920550;-67
2021/06/20 03:36:40;;;;;;;23.67;16.70;;;;;;;;;;764451;182;919636;-67
2021/06/20 03:39:06;;;;;;;27.17;19.10;;;;;;;;;;758145;182;947027;-67
2021/06/20 03:41:32;;;;;;;24.87;18.33;;;;;;;;;;758316;183;919025;-67
2021/06/20 03:43:58;;;;;;;23.50;18.67;;;;;;;;;;763481;182;910976;-66
2021/06/20 03:46:23;;;;;;;23.40;19.50;;;;;;;;;;767753;183;918568;-67
2021/06/20 03:48:49;;;;;;;23.53;18.00;;;;;;;;;;759019;182;919008;-67
2021/06/20 03:51:15;;;;;;;22.97;18.90;;;;;;;;;;761351;182;989852;-67
2021/06/20 03:53:41;;;;;;;21.47;18.10;;;;;;;;;;765371;182;919346;-67
2021/06/20 03:56:07;;;;;;;24.30;20.80;;;;;;;;;;761563;182;919593;-67
2021/06/20 03:58:33;;;;;;;24.07;20.30;;;;;;;;;;758068;183;920244;-68
2021/06/20 04:00:59;;;;;;;27.20;21.60;;;;;;;;;;766165;182;918526;-68
2021/06/20 04:03:24;;;;;;;28.37;22.30;;;;;;;;;;756723;183;904070;-68
2021/06/20 04:05:50;;;;;;;21.50;16.03;;;;;;;;;;755908;183;918109;-69
2021/06/20 04:08:16;;;;;;;19.43;16.73;;;;;;;;;;758405;184;919900;-68
2021/06/20 04:10:42;;;;;;;24.10;21.17;;;;;;;;;;743841;186;919388;-69
2021/06/20 04:13:08;;;;;;;28.65;22.65;;;;;;;;;;747845;186;919196;-68
2021/06/20 04:15:35;;;;;;;27.70;22.00;;;;;;;;;;761409;183;921910;-69
2021/06/20 04:17:59;;;;;;;27.47;23.80;;;;;;;;;;761661;184;917468;-68
2021/06/20 04:20:25;;;;;;;30.43;23.77;;;;;;;;;;755437;184;941192;-68
2021/06/20 04:22:51;;;;;;;28.70;25.33;;;;;;;;;;757413;183;918980;-68
2021/06/20 04:25:17;;;;;;;30.67;25.67;;;;;;;;;;766269;182;920155;-69
2021/06/20 04:27:43;;;;;;;28.95;24.95;;;;;;;;;;757377;183;919780;-69
2021/06/20 04:30:11;;;;;;;27.33;23.90;;;;;;;;;;762476;182;918975;-69
2021/06/20 04:32:35;;;;;;;38.83;27.07;;;;;;;;;;766231;182;915254;-70
2021/06/20 04:35:01;;;;;;;30.53;27.27;;;;;;;;;;758386;183;920449;-69
2021/06/20 04:37:27;;;;;;;33.23;27.13;;;;;;;;;;761100;183;919318;-70
2021/06/20 04:39:52;;;;;;;31.23;27.83;;;;;;;;;;757055;183;913920;-69
2021/06/20 04:42:21;;;;;;;30.37;27.27;;;;;;;;;;761675;183;913832;-70
2021/06/20 04:44:45;;;;;;;29.20;25.37;;;;;;;;;;761969;183;911912;-70
2021/06/20 04:47:11;;;;;;;32.53;24.70;;;;;;;;;;755964;183;916029;-70
2021/06/20 04:49:36;;;;;;;28.83;23.70;;;;;;;;;;765906;182;915783;-71
2021/06/20 04:52:05;;;;;;;26.50;23.63;;;;;;;;;;756133;183;919113;-70
2021/06/20 04:54:32;;;;;;;28.23;22.60;;;;;;;;;;760221;183;919099;-71
2021/06/20 04:56:57;;;;;;;25.87;23.23;;;;;;;;;;764273;182;919259;-71
2021/06/20 04:59:22;;;;;;;25.43;20.37;;;;;;;;;;759050;182;920747;-71
2021/06/20 05:01:48;;;;;;;29.83;18.30;;;;;;;;;;761543;182;922215;-73
2021/06/20 05:04:14;;;;;;;19.70;17.60;;;;;;;;;;762182;182;912166;-71
2021/06/20 05:06:40;;;;;;;17.70;15.83;;;;;;;;;;753599;184;918566;-73
2021/06/20 05:09:06;;;;;;;19.80;16.60;;;;;;;;;;746547;186;919083;-72
2021/06/20 05:11:31;;;;;;;17.80;15.90;;;;;;;;;;746695;186;919676;-73
2021/06/20 05:13:57;;;;;;;16.63;15.10;;;;;;;;;;766281;183;919357;-74
2021/06/20 05:16:23;;;;;;;18.20;15.97;;;;;;;;;;755926;183;919367;-72
2021/06/20 05:18:49;;;;;;;20.57;16.63;;;;;;;;;;753288;184;929065;-72
2021/06/20 05:21:15;;;;;;;19.00;17.00;;;;;;;;;;748640;186;919494;-75
2021/06/20 05:23:41;;;;;;;18.27;16.27;;;;;;;;;;731793;190;918487;-75
2021/06/20 05:26:06;;;;;;;18.90;15.63;;;;;;;;;;745519;184;918419;-70
2021/06/20 05:28:32;;;;;;;18.00;16.30;;;;;;;;;;758840;183;918745;-73
2021/06/20 05:30:58;;;;;;;18.30;16.40;;;;;;;;;;761066;183;918615;-74
2021/06/20 05:33:24;;;;;;;17.67;15.90;;;;;;;;;;760601;182;916036;-72
2021/06/20 05:35:50;;;;;;;18.10;16.23;;;;;;;;;;758160;182;993363;-73
2021/06/20 05:38:16;;;;;;;17.80;16.00;;;;;;;;;;766897;182;916251;-73
2021/06/20 05:40:41;;;;;;;18.27;16.23;;;;;;;;;;756338;183;1018716;-74
2021/06/20 05:43:07;;;;;;;18.27;16.37;;;;;;;;;;756390;184;914443;-73
2021/06/20 05:45:33;;;;;;;19.80;15.77;;;;;;;;;;758838;184;918840;-73
2021/06/20 05:47:59;;;;;;;16.53;14.80;;;;;;;;;;758986;183;919547;-72
2021/06/20 05:50:25;;;;;;;18.33;16.13;;;;;;;;;;755332;182;919105;-73
2021/06/20 05:52:51;;;;;;;17.33;15.60;;;;;;;;;;764063;183;919357;-72
2021/06/20 05:55:17;;;;;;;16.37;14.67;;;;;;;;;;760675;182;919883;-74
2021/06/20 05:57:42;;;;;;;18.73;14.73;;;;;;;;;;759464;182;920086;-74
2021/06/20 06:00:09;;;;;;;16.37;13.63;;;;;;;;;;760510;182;919314;-74
2021/06/20 06:02:35;;;;;;;19.37;14.40;;;;;;;;;;769693;180;919797;-75
2021/06/20 06:05:01;;;;;;;15.37;13.77;;;;;;;;;;760257;181;919285;-74
2021/06/20 06:07:26;;;;;;;15.50;14.10;;;;;;;;;;761276;182;919020;-74
2021/06/20 06:09:52;;;;;;;17.00;14.40;;;;;;;;;;767559;182;918157;-73
2021/06/20 06:12:23;;;;;;;16.30;14.70;;;;;;;;;;761552;182;919289;-73
2021/06/20 06:14:44;;;;;;;15.10;13.50;;;;;;;;;;758774;182;919423;-73
2021/06/20 06:17:10;;;;;;;17.87;14.97;;;;;;;;;;768651;182;919537;-74
2021/06/20 06:19:36;;;;;;;17.37;14.47;;;;;;;;;;759048;183;1021643;-75
2021/06/20 06:22:01;;;;;;;19.13;15.20;;;;;;;;;;762328;182;918841;-75
2021/06/20 06:24:27;;;;;;;17.05;15.32;;;;;;;;;;762364;183;891935;-76
2021/06/20 06:26:53;;;;;;;17.33;15.13;;;;;;;;;;759015;182;919196;-74
2021/06/20 06:29:19;;;;;;;16.30;14.67;;;;;;;;;;761060;182;918702;-75
2021/06/20 06:31:45;;;;;;;17.10;14.20;;;;;;;;;;760660;182;919146;-75
2021/06/20 06:34:11;;;;;;;18.50;15.20;;;;;;;;;;765265;182;918429;-74
2021/06/20 06:36:37;;;;;;;16.50;14.80;;;;;;;;;;759034;182;919527;-75
2021/06/20 06:39:02;;;;;;;15.10;13.50;;;;;;;;;;760295;182;921332;-74
2021/06/20 06:41:28;;;;;;;15.67;13.90;;;;;;;;;;766246;182;917945;-76
2021/06/20 06:43:54;;;;;;;16.60;14.60;;;;;;;;;;757744;184;917457;-75
2021/06/20 06:46:20;;;;;;;15.07;12.50;;;;;;;;;;754101;184;919155;-75
2021/06/20 06:48:46;;;;;;;14.73;13.30;;;;;;;;;;756211;184;932043;-76
2021/06/20 06:51:12;;;;;;;15.27;13.70;;;;;;;;;;759594;183;918274;-75
2021/06/20 06:53:38;;;;;;;13.80;12.50;;;;;;;;;;758312;182;919043;-75
2021/06/20 06:56:04;;;;;;;15.17;13.13;;;;;;;;;;758373;182;1035396;-75
2021/06/20 06:58:30;;;;;;;13.05;11.75;;;;;;;;;;760916;184;919246;-75
2021/06/20 07:00:56;;;;;;;13.33;11.10;;;;;;;;;;760924;182;918232;-77
2021/06/20 07:03:21;;;;;;;12.27;11.07;;;;;;;;;;760132;182;918446;-76
2021/06/20 07:05:47;;;;;;;12.23;11.10;;;;;;;;;;765726;182;912670;-76
2021/06/20 07:08:13;;;;;;;12.83;10.20;;;;;;;;;;761156;182;918846;-75
2021/06/20 07:10:39;;;;;;;11.80;10.60;;;;;;;;;;754706;183;919125;-76
2021/06/20 07:13:05;;;;;;;13.07;10.53;;;;;;;;;;766885;182;918115;-78
2021/06/20 07:15:31;;;;;;;9.90;9.00;;;;;;;;;;758999;182;919066;-74
2021/06/20 07:17:56;;;;;;;11.77;10.13;;;;;;;;;;757768;182;920154;-78
2021/06/20 07:20:23;;;;;;;12.32;8.20;;;;;;;;;;764076;183;919195;-75
2021/06/20 07:22:49;;;;;;;11.73;8.10;;;;;;;;;;759223;183;919289;-77
2021/06/20 07:25:15;;;;;;;11.20;8.20;;;;;;;;;;761135;182;919078;-77
2021/06/20 07:27:41;;;;;;;11.70;10.47;;;;;;;;;;762127;182;998095;-76
2021/06/20 07:30:08;;;;;;;8.97;8.17;;;;;;;;;;768094;182;918110;-77
2021/06/20 07:32:34;;;;;;;11.50;8.60;;;;;;;;;;758757;183;867041;-78
2021/06/20 07:35:00;;;;;;;8.47;7.67;;;;;;;;;;760409;183;918643;-76
2021/06/20 07:37:25;;;;;;;8.57;7.77;;;;;;;;;;764571;182;920112;-76
2021/06/20 07:39:51;;;;;;;9.53;7.93;;;;;;;;;;761000;182;926273;-77
2021/06/20 07:42:17;;;;;;;7.67;6.93;;;;;;;;;;760515;182;919306;-77
2021/06/20 07:44:43;;;;;;;9.80;6.37;;;;;;;;;;766345;182;815630;-76
2021/06/20 07:47:09;;;;;;;8.90;6.30;;;;;;;;;;763639;182;628055;-74
2021/06/20 07:49:35;;;;;;;8.07;7.13;;;;;;;;;;761030;182;918859;-75
2021/06/20 07:52:00;;;;;;;8.10;7.30;;;;;;;;;;762241;182;917986;-75
2021/06/20 07:54:26;;;;;;;12.40;7.23;;;;;;;;;;768802;182;814833;-75
2021/06/20 07:56:52;;;;;;;8.35;7.55;;;;;;;;;;763163;182;814856;-74
2021/06/20 07:59:18;;;;;;;9.53;8.17;;;;;;;;;;760474;184;628659;-73
2021/06/20 08:01:44;;;;;;;11.90;6.50;;;;;;;;;;765973;183;921082;-76
2021/06/20 08:04:10;;;;;;;7.67;6.87;;;;;;;;;;761703;182;839337;-75
2021/06/20 08:06:35;;;;;;;8.50;7.68;;;;;;;;;;759393;182;919222;-74
2021/06/20 08:09:01;;;;;;;9.13;7.57;;;;;;;;;;765058;182;918712;-74
2021/06/20 08:11:27;;;;;;;10.03;7.00;;;;;;;;;;761315;182;917508;-73
2021/06/20 08:13:53;;;;;;;10.87;7.50;;;;;;;;;;760909;182;921931;-74
2021/06/20 08:16:19;;;;;;;8.13;7.33;;;;;;;;;;762080;182;919412;-73
2021/06/20 08:18:45;;;;;;;8.00;6.60;;;;;;;;;;761765;182;816801;-74
2021/06/20 08:21:10;;;;;;;8.10;7.27;;;;;;;;;;761703;183;879813;-74
2021/06/20 08:23:36;;;;;;;10.47;7.83;;;;;;;;;;760050;182;770640;-74
2021/06/20 08:26:02;;;;;;;12.47;7.90;;;;;;;;;;765857;182;918032;-74
2021/06/20 08:28:28;;;;;;;8.90;6.53;;;;;;;;;;760573;182;918396;-76
2021/06/20 08:30:54;;;;;;;8.05;7.25;;;;;;;;;;761027;182;923735;-76
2021/06/20 08:33:20;;;;;;;8.83;7.77;;;;;;;;;;770287;182;842400;-75
2021/06/20 08:35:45;;;;;;;8.00;7.20;;;;;;;;;;762717;183;915735;-75
2021/06/20 08:38:11;;;;;;;7.40;6.63;;;;;;;;;;764717;182;910909;-74
2021/06/20 08:40:37;;;;;;;6.67;6.03;;;;;;;;;;765072;182;1024419;-73
2021/06/20 08:43:03;;;;;;;7.47;6.63;;;;;;;;;;761591;182;915265;-76
2021/06/20 08:45:29;;;;;;;11.00;6.47;;;;;;;;;;760446;183;918961;-75
2021/06/20 08:47:55;;;;;;;7.33;6.63;;;;;;;;;;758692;182;916258;-75
2021/06/20 08:50:20;;;;;;;7.53;6.60;;;;;;;;;;768393;182;709940;-75
2021/06/20 08:52:46;;;;;;;7.93;7.10;;;;;;;;;;762719;182;815671;-74
2021/06/20 08:55:12;;;;;;;7.73;6.90;;;;;;;;;;761157;183;919584;-73
2021/06/20 08:57:38;;;;;;;8.00;7.30;;;;;;;;;;769939;182;914053;-74
2021/06/20 09:00:05;;;;;;;8.20;7.43;;;;;;;;;;760344;183;913506;-74
2021/06/20 09:02:31;;;;;;;9.00;7.60;;;;;;;;;;761880;182;917909;-74
2021/06/20 09:04:58;;;;;;;7.87;7.07;;;;;;;;;;766396;182;917713;-77
2021/06/20 09:07:28;;;;;;;7.00;6.30;;;;;;;;;;763608;182;815753;-74
2021/06/20 09:09:53;;;;;;;7.90;7.20;;;;;;;;;;757616;183;928303;-73
2021/06/20 09:12:19;;;;;;;7.55;6.75;;;;;;;;;;758722;182;816159;-77
2021/06/20 09:14:45;;;;;;;13.17;7.33;;;;;;;;;;765105;183;783526;-71
2021/06/20 09:17:11;;;;;;;8.23;7.10;;;;;;;;;;760878;182;917840;-72
2021/06/20 09:19:37;;;;;;;7.47;6.77;;;;;;;;;;763802;182;817630;-71
2021/06/20 09:22:06;;;;;;;8.00;7.20;;;;;;;;;;766226;182;918465;-74
2021/06/20 09:24:29;;;;;;;7.60;6.87;;;;;;;;;;758231;184;816058;-75
2021/06/20 09:26:56;;;;;;;7.13;6.40;;;;;;;;;;757377;183;919246;-75
2021/06/20 09:29:30;;;;;;;8.13;6.85;;;;;;;;;;763753;182;816036;-73
2021/06/20 09:31:56;;;;;;;7.03;6.33;;;;;;;;;;762615;182;918849;-74
2021/06/20 09:34:22;;;;;;;9.50;6.53;;;;;;;;;;761771;182;919408;-72
2021/06/20 09:36:48;;;;;;;7.37;6.67;;;;;;;;;;760360;183;919138;-72
2021/06/20 09:39:19;;;;;;;6.60;5.93;;;;;;;;;;763175;181;873838;-71
2021/06/20 09:41:44;;;;;;;6.47;5.80;;;;;;;;;;771692;182;813905;-69
2021/06/20 09:44:10;;;;;;;6.40;5.70;;;;;;;;;;760099;182;845347;-73
2021/06/20 09:46:36;;;;;;;7.70;6.20;;;;;;;;;;762019;182;919683;-72
2021/06/20 09:49:02;;;;;;;9.80;5.80;;;;;;;;;;767401;182;918666;-69
2021/06/20 09:51:29;;;;;;;11.03;6.27;;;;;;;;;;761757;183;902445;-72
2021/06/20 09:53:54;;;;;;;6.43;5.83;;;;;;;;;;756038;184;919165;-71
2021/06/20 09:56:22;;;;;;;7.90;6.13;;;;;;;;;;765723;183;976461;-70
2021/06/20 09:58:54;;;;;;;7.00;6.30;;;;;;;;;;759992;182;919108;-69
2021/06/20 10:01:20;;;;;;;6.53;5.80;;;;;;;;;;758983;182;919360;-71
2021/06/20 10:03:46;;;;;;;6.30;5.60;;;;;;;;;;759999;182;873313;-71
2021/06/20 10:06:12;;;;;;;7.43;6.73;;;;;;;;;;767172;182;817085;-71
2021/06/20 10:08:38;;;;;;;8.90;6.43;;;;;;;;;;760981;182;920932;-68
2021/06/20 10:11:04;;;;;;;6.80;6.20;;;;;;;;;;759750;182;918617;-71
2021/06/20 10:13:29;;;;;;;10.30;7.20;;;;;;;;;;761647;183;919779;-73
2021/06/20 10:15:55;;;;;;;12.53;7.20;;;;;;;;;;761892;182;919752;-72
2021/06/20 10:18:21;;;;;;;10.40;6.10;;;;;;;;;;761592;182;942037;-68
2021/06/20 10:20:48;;;;;;;7.35;5.80;;;;;;;;;;761999;182;918783;-69
2021/06/20 10:23:16;;;;;;;8.37;7.20;;;;;;;;;;766146;182;918960;-72
2021/06/20 10:25:42;;;;;;;6.80;5.90;;;;;;;;;;758599;183;1018686;-68
2021/06/20 10:28:08;;;;;;;8.80;6.97;;;;;;;;;;758858;182;919663;-70
2021/06/20 10:30:35;;;;;;;8.77;6.03;;;;;;;;;;762173;182;918561;-70
2021/06/20 10:33:03;;;;;;;7.93;6.63;;;;;;;;;;759502;182;916705;-70
2021/06/20 10:35:29;;;;;;;12.73;7.30;;;;;;;;;;760436;182;920268;-70
2021/06/20 10:37:55;;;;;;;7.12;6.43;;;;;;;;;;763575;182;919312;-68
2021/06/20 10:40:22;;;;;;;7.27;6.07;;;;;;;;;;768263;182;628471;-68
2021/06/20 10:42:48;;;;;;;6.97;6.37;;;;;;;;;;757385;183;922463;-67
2021/06/20 10:45:14;;;;;;;10.60;6.40;;;;;;;;;;756934;183;919286;-69
2021/06/20 10:47:39;;;;;;;7.03;6.30;;;;;;;;;;765197;183;915907;-69
2021/06/20 10:50:06;;;;;;;6.97;5.90;;;;;;;;;;756906;183;915391;-69
2021/06/20 10:52:32;;;;;;;6.70;6.00;;;;;;;;;;763433;181;914094;-70
2021/06/20 10:55:04;;;;;;;9.90;6.53;;;;;;;;;;770631;182;899463;-71
2021/06/20 10:57:30;;;;;;;9.80;6.57;;;;;;;;;;765063;183;915998;-70
2021/06/20 10:59:57;;;;;;;9.93;6.23;;;;;;;;;;760890;182;919781;-71
2021/06/20 11:02:22;;;;;;;7.30;6.60;;;;;;;;;;759995;182;1021406;-72
2021/06/20 11:04:48;;;;;;;8.30;6.77;;;;;;;;;;765462;182;919473;-70
2021/06/20 11:07:13;;;;;;;8.80;6.57;;;;;;;;;;758101;182;919821;-74
2021/06/20 11:09:39;;;;;;;7.30;6.10;;;;;;;;;;760270;182;919406;-70
2021/06/20 11:12:06;;;;;;;6.90;6.30;;;;;;;;;;766565;182;924659;-71
2021/06/20 11:14:32;;;;;;;7.17;6.47;;;;;;;;;;763728;182;918884;-70
2021/06/20 11:16:57;;;;;;;8.03;6.00;;;;;;;;;;764532;182;919391;-71
2021/06/20 11:19:23;;;;;;;7.27;6.57;;;;;;;;;;765388;182;1123982;-70
2021/06/20 11:21:52;;;;;;;7.70;6.30;;;;;;;;;;760646;182;919247;-71
2021/06/20 11:24:17;;;;;;;6.77;6.13;;;;;;;;;;759784;182;920221;-70
2021/06/20 11:26:49;;;;;;;7.20;6.50;;;;;;;;;;760808;182;913378;-71
2021/06/20 11:29:14;;;;;;;6.90;6.13;;;;;;;;;;764919;182;915593;-70
2021/06/20 11:31:44;;;;;;;7.70;6.90;;;;;;;;;;760496;182;920355;-72
2021/06/20 11:34:10;;;;;;;8.27;7.00;;;;;;;;;;758749;182;919575;-70
2021/06/20 11:36:35;;;;;;;8.37;6.77;;;;;;;;;;759899;182;918730;-71
2021/06/20 11:39:06;;;;;;;9.00;6.60;;;;;;;;;;765627;182;966747;-70
2021/06/20 11:41:32;;;;;;;7.47;6.70;;;;;;;;;;754940;184;919442;-73
2021/06/20 11:43:58;;;;;;;9.40;6.00;;;;;;;;;;758744;183;918588;-71
2021/06/20 11:46:24;;;;;;;7.57;6.87;;;;;;;;;;766188;182;918915;-72
2021/06/20 11:48:51;;;;;;;7.87;6.97;;;;;;;;;;758139;183;921799;-71
2021/06/20 11:51:17;;;;;;;7.57;6.73;;;;;;;;;;757390;183;921610;-71
2021/06/20 11:53:43;;;;;;;8.57;6.87;;;;;;;;;;754269;182;975812;-72
2021/06/20 11:56:09;;;;;;;7.63;6.93;;;;;;;;;;765951;182;917693;-70
2021/06/20 11:58:35;;;;;;;7.50;6.70;;;;;;;;;;762209;182;921115;-72
2021/06/20 12:01:01;;;;;;;7.17;5.80;;;;;;;;;;758206;182;1020767;-71
2021/06/20 12:03:26;;;;;;;8.20;7.40;;;;;;;;;;767856;182;920355;-71
2021/06/20 12:05:53;;;;;;;7.73;6.93;;;;;;;;;;761762;182;920686;-72
2021/06/20 12:08:18;;;;;;;6.93;6.23;;;;;;;;;;758199;183;925500;-71
2021/06/20 12:10:44;;;;;;;8.67;6.67;;;;;;;;;;762605;182;914355;-72
2021/06/20 12:13:10;;;;;;;7.37;6.07;;;;;;;;;;760356;182;921950;-71
2021/06/20 12:15:36;;;;;;;7.53;6.77;;;;;;;;;;763006;181;816656;-71
2021/06/20 12:18:04;;;;;;;7.70;6.90;;;;;;;;;;758821;183;912401;-69
2021/06/20 12:20:32;;;;;;;7.23;6.50;;;;;;;;;;762473;183;915309;-71
2021/06/20 12:22:57;;;;;;;7.27;6.40;;;;;;;;;;757868;182;909853;-73
2021/06/20 12:25:23;;;;;;;8.50;6.63;;;;;;;;;;756660;183;916341;-71
2021/06/20 12:27:49;;;;;;;6.87;6.17;;;;;;;;;;766852;182;974193;-73
2021/06/20 12:30:16;;;;;;;6.23;5.63;;;;;;;;;;758400;183;915893;-74
2021/06/20 12:32:41;;;;;;;6.90;6.10;;;;;;;;;;761109;183;916937;-70
2021/06/20 12:35:08;;;;;;;8.50;6.40;;;;;;;;;;763825;182;919469;-70
2021/06/20 12:37:39;;;;;;;9.60;7.10;;;;;;;;;;760040;182;916094;-71
2021/06/20 12:40:05;;;;;;;9.93;7.90;;;;;;;;;;759647;182;910348;-72
2021/06/20 12:42:31;;;;;;;10.13;6.50;;;;;;;;;;757507;182;1312609;-71
2021/06/20 12:44:57;;;;;;;6.67;5.90;;;;;;;;;;764956;182;919405;-70
2021/06/20 12:47:29;;;;;;;7.40;5.93;;;;;;;;;;758694;182;919232;-72
2021/06/20 12:49:55;;;;;;;8.43;6.10;;;;;;;;;;759441;182;919643;-72
2021/06/20 12:52:21;;;;;;;7.20;6.47;;;;;;;;;;758589;182;938806;-70
2021/06/20 12:54:53;;;;;;;8.07;7.00;;;;;;;;;;766646;182;915062;-71
2021/06/20 12:57:18;;;;;;;13.43;7.30;;;;;;;;;;762980;183;1124615;-71
2021/06/20 12:59:45;;;;;;;8.87;6.47;;;;;;;;;;756851;184;920563;-71
2021/06/20 13:02:10;;;;;;;7.10;6.30;;;;;;;;;;751856;186;920123;-72
2021/06/20 13:04:36;;;;;;;6.90;6.20;;;;;;;;;;758247;182;916591;-71
2021/06/20 13:07:02;;;;;;;12.37;6.20;;;;;;;;;;758386;182;915954;-72
2021/06/20 13:09:29;;;;;;;10.53;6.50;;;;;;;;;;759205;183;922392;-73
2021/06/20 13:11:53;;;;;;;11.17;6.87;;;;;;;;;;766839;182;916358;-72
2021/06/20 13:14:19;;;;;;;7.67;6.30;;;;;;;;;;748168;182;935332;-72
2021/06/20 13:16:45;;;;;;;9.13;6.77;;;;;;;;;;764948;182;812575;-70
2021/06/20 13:19:11;;;;;;;7.07;6.23;;;;;;;;;;770831;182;641357;-74
2021/06/20 13:21:37;;;;;;;7.90;6.77;;;;;;;;;;763204;183;633558;-75
2021/06/20 13:24:03;;;;;;;6.87;6.23;;;;;;;;;;757987;184;628895;-74
2021/06/20 13:26:29;;;;;;;8.73;7.13;;;;;;;;;;755156;186;622847;-72
2021/06/20 13:28:55;;;;;;;13.50;8.10;;;;;;;;;;764220;182;709166;-73
2021/06/20 13:31:21;;;;;;;6.90;5.90;;;;;;;;;;765431;182;918667;-73
2021/06/20 13:33:52;;;;;;;7.20;6.50;;;;;;;;;;760347;184;628073;-72
2021/06/20 13:36:12;;;;;;;6.23;5.60;;;;;;;;;;763523;183;636460;-74
2021/06/20 13:38:38;;;;;;;9.60;6.43;;;;;;;;;;764368;183;628958;-74
2021/06/20 13:41:04;;;;;;;9.33;7.03;;;;;;;;;;760615;183;628549;-73
2021/06/20 13:43:30;;;;;;;7.10;6.40;;;;;;;;;;769302;182;636611;-71
2021/06/20 13:45:56;;;;;;;10.53;7.17;;;;;;;;;;761344;183;629273;-74
2021/06/20 13:48:21;;;;;;;8.60;6.20;;;;;;;;;;757747;183;919079;-74
2021/06/20 13:50:47;;;;;;;7.80;7.07;;;;;;;;;;754152;186;629908;-73
2021/06/20 13:53:13;;;;;;;9.13;6.90;;;;;;;;;;763391;183;634026;-73
2021/06/20 13:55:39;;;;;;;7.60;6.40;;;;;;;;;;762391;182;618481;-74
2021/06/20 13:58:05;;;;;;;8.93;6.00;;;;;;;;;;767252;182;815621;-75
2021/06/20 14:00:31;;;;;;;9.60;6.90;;;;;;;;;;763556;182;622000;-73
2021/06/20 14:02:57;;;;;;;8.70;6.33;;;;;;;;;;761323;182;628051;-74
2021/06/20 14:05:24;;;;;;;15.43;6.53;;;;;;;;;;759402;183;816570;-74
2021/06/20 14:07:49;;;;;;;9.23;6.43;;;;;;;;;;772512;181;643349;-74